createdAt,value
2023-01-29T00:01:28.521Z,4.68
2023-01-29T00:06:32.378Z,4.38
2023-01-29T00:11:37.507Z,4.72
2023-01-29T00:16:41.174Z,4.78
2023-01-29T00:21:44.950Z,4.28
2023-01-29T00:26:50.140Z,4.78
2023-01-29T00:31:53.868Z,4.38
2023-01-29T00:37:05.002Z,4.43
2023-01-29T00:42:27.526Z,4.70
2023-01-29T00:47:34.482Z,4.45
2023-01-29T00:52:38.714Z,4.88
2023-01-29T00:57:43.669Z,4.55
2023-01-29T01:03:05.217Z,4.25
2023-01-29T01:08:29.328Z,4.32
2023-01-29T01:13:36.241Z,4.60
2023-01-29T01:18:40.032Z,4.70
2023-01-29T01:23:43.624Z,4.35
2023-01-29T01:28:48.626Z,4.10
2023-01-29T01:33:54.318Z,4.80
2023-01-29T01:39:00.758Z,4.50
2023-01-29T01:44:07.278Z,4.38
2023-01-29T01:49:15.886Z,5.10
2023-01-29T01:54:25.014Z,4.10
2023-01-29T01:59:29.924Z,4.17
2023-01-29T02:04:50.883Z,4.60
2023-01-29T02:09:59.985Z,4.72
2023-01-29T02:15:06.533Z,4.55
2023-01-29T02:20:18.107Z,3.78
2023-01-29T02:25:58.981Z,4.05
2023-01-29T02:31:13.884Z,5.60
2023-01-29T02:36:28.736Z,4.53
2023-01-29T02:41:39.151Z,3.78
2023-01-29T02:46:52.292Z,4.38
2023-01-29T02:52:03.427Z,4.25
2023-01-29T02:57:16.295Z,4.28
2023-01-29T03:02:27.634Z,4.03
2023-01-29T03:07:45.070Z,3.97
2023-01-29T03:13:20.409Z,3.85
2023-01-29T03:18:30.815Z,4.10
2023-01-29T03:23:55.493Z,4.00
2023-01-29T03:29:18.325Z,4.07
2023-01-29T03:34:34.874Z,3.78
2023-01-29T03:39:39.201Z,4.53
2023-01-29T03:44:59.112Z,5.15
2023-01-29T03:50:19.402Z,4.38
2023-01-29T03:55:32.006Z,4.47
2023-01-29T04:00:40.257Z,4.40
2023-01-29T04:05:50.356Z,4.20
2023-01-29T04:11:03.708Z,4.47
2023-01-29T04:16:37.422Z,3.92
2023-01-29T04:22:05.239Z,3.83
2023-01-29T04:27:24.196Z,4.00
2023-01-29T04:32:34.048Z,3.90
2023-01-29T04:37:45.179Z,4.50
2023-01-29T04:42:56.243Z,3.75
2023-01-29T04:48:08.471Z,4.20
2023-01-29T04:53:19.036Z,4.25
2023-01-29T04:58:29.896Z,4.20
2023-01-29T05:03:35.379Z,4.15
2023-01-29T05:08:41.601Z,4.80
2023-01-29T05:13:45.497Z,3.92
2023-01-29T05:18:49.452Z,4.20
2023-01-29T05:24:13.515Z,4.13
2023-01-29T05:29:18.090Z,4.65
2023-01-29T05:34:21.823Z,4.53
2023-01-29T05:39:26.912Z,4.05
2023-01-29T05:44:30.630Z,4.63
2023-01-29T05:49:34.203Z,3.70
2023-01-29T05:54:39.535Z,4.38
2023-01-29T05:59:43.132Z,3.92
2023-01-29T06:04:46.832Z,4.05
2023-01-29T06:09:51.836Z,3.63
2023-01-29T06:14:55.597Z,3.70
2023-01-29T06:19:59.399Z,4.00
2023-01-29T06:25:04.965Z,5.10
2023-01-29T06:30:09.854Z,5.43
2023-01-29T06:35:13.412Z,4.28
2023-01-29T06:40:18.811Z,4.43
2023-01-29T06:45:22.722Z,4.20
2023-01-29T06:50:26.333Z,4.20
2023-01-29T06:55:31.268Z,4.15
2023-01-29T07:00:35.197Z,4.65
2023-01-29T07:05:38.833Z,3.97
2023-01-29T07:10:43.738Z,3.83
2023-01-29T07:15:47.341Z,3.80
2023-01-29T07:20:50.964Z,3.97
2023-01-29T07:25:56.000Z,4.10
2023-01-29T07:30:59.990Z,3.88
2023-01-29T07:36:04.137Z,4.32
2023-01-29T07:41:10.348Z,4.28
2023-01-29T07:46:14.193Z,3.88
2023-01-29T07:51:18.637Z,4.40
2023-01-29T07:56:23.770Z,4.13
2023-01-29T08:01:27.536Z,4.28
2023-01-29T08:06:31.290Z,4.10
2023-01-29T08:11:36.301Z,4.22
2023-01-29T08:16:39.953Z,4.93
2023-01-29T08:21:44.619Z,4.68
2023-01-29T08:26:49.707Z,4.55
2023-01-29T08:31:53.398Z,5.43
2023-01-29T08:36:56.972Z,5.18
2023-01-29T08:42:01.903Z,4.32
2023-01-29T08:47:05.796Z,4.70
2023-01-29T08:52:09.475Z,5.32
2023-01-29T08:57:14.411Z,4.50
2023-01-29T09:02:18.016Z,4.78
2023-01-29T09:07:21.865Z,4.65
2023-01-29T09:12:27.271Z,4.03
2023-01-29T09:17:30.855Z,4.63
2023-01-29T09:22:34.726Z,5.10
2023-01-29T09:27:40.064Z,6.03
2023-01-29T09:32:53.331Z,4.90
2023-01-29T09:37:57.420Z,4.93
2023-01-29T09:43:05.657Z,4.85
2023-01-29T09:48:12.611Z,4.70
2023-01-29T09:53:21.181Z,5.05
2023-01-29T09:58:30.175Z,4.32
2023-01-29T10:03:51.797Z,5.53
2023-01-29T10:09:34.432Z,4.40
2023-01-29T10:14:50.610Z,4.53
2023-01-29T10:20:07.695Z,6.82
2023-01-29T10:25:15.245Z,7.40
2023-01-29T10:30:29.533Z,6.65
2023-01-29T10:35:36.875Z,6.45
2023-01-29T10:40:47.771Z,5.75
2023-01-29T10:46:01.935Z,7.25
2023-01-29T10:51:17.551Z,6.95
2023-01-29T10:56:38.569Z,6.20
2023-01-29T11:01:43.674Z,8.60
2023-01-29T11:06:47.767Z,7.55
2023-01-29T11:11:56.311Z,9.25
2023-01-29T11:17:01.475Z,8.38
2023-01-29T11:22:05.270Z,6.60
2023-01-29T11:27:16.709Z,5.38
2023-01-29T11:32:31.002Z,5.80
2023-01-29T11:37:38.054Z,9.05
2023-01-29T11:42:41.645Z,5.75
2023-01-29T11:47:50.389Z,7.90
2023-01-29T11:52:54.824Z,6.47
2023-01-29T11:58:04.705Z,6.80
2023-01-29T12:03:17.886Z,7.70
2023-01-29T12:08:22.932Z,8.48
2023-01-29T12:13:28.919Z,8.32
2023-01-29T12:18:38.366Z,6.57
2023-01-29T12:23:51.280Z,6.97
2023-01-29T12:29:07.233Z,6.82
2023-01-29T12:34:17.498Z,9.20
2023-01-29T12:39:22.150Z,7.65
2023-01-29T12:44:34.763Z,7.70
2023-01-29T12:49:42.533Z,9.20
2023-01-29T12:54:51.068Z,8.15
2023-01-29T12:59:59.989Z,7.30
2023-01-29T13:05:18.422Z,8.03
2023-01-29T13:10:27.035Z,9.68
2023-01-29T13:15:36.152Z,9.13
2023-01-29T13:20:42.210Z,10.20
2023-01-29T13:25:45.948Z,9.55
2023-01-29T13:31:12.312Z,8.45
2023-01-29T13:36:23.369Z,10.55
2023-01-29T13:41:35.133Z,10.10
2023-01-29T13:46:42.733Z,8.57
2023-01-29T13:51:47.755Z,8.27
2023-01-29T13:57:00.533Z,8.82
2023-01-29T14:02:20.867Z,7.45
2023-01-29T14:07:50.990Z,7.35
2023-01-29T14:12:55.661Z,9.52
2023-01-29T14:18:04.110Z,7.35
2023-01-29T14:23:21.631Z,9.07
2023-01-29T14:28:27.224Z,6.93
2023-01-29T14:33:36.327Z,6.72
2023-01-29T14:38:42.785Z,8.17
2023-01-29T14:43:46.498Z,7.95
2023-01-29T14:48:51.912Z,8.35
2023-01-29T14:54:02.576Z,8.13
2023-01-29T14:59:17.508Z,9.13
2023-01-29T15:04:27.309Z,7.80
2023-01-29T15:09:40.920Z,9.07
2023-01-29T15:14:52.212Z,9.55
2023-01-29T15:19:56.900Z,8.43
2023-01-29T15:25:07.817Z,7.35
2023-01-29T15:30:17.857Z,7.22
2023-01-29T15:35:29.786Z,7.40
2023-01-29T15:40:36.301Z,7.60
2023-01-29T15:45:42.438Z,8.60
2023-01-29T15:50:47.355Z,7.25
2023-01-29T15:55:53.878Z,7.15
2023-01-29T16:01:00.144Z,6.18
2023-01-29T16:06:07.064Z,6.28
2023-01-29T16:11:12.221Z,5.30
2023-01-29T16:16:23.035Z,5.78
2023-01-29T16:21:30.056Z,5.80
2023-01-29T16:26:38.249Z,6.50
2023-01-29T16:31:44.030Z,6.15
2023-01-29T16:36:49.522Z,5.88
2023-01-29T16:42:21.855Z,5.68
2023-01-29T16:47:30.092Z,5.43
2023-01-29T16:52:35.025Z,5.25
2023-01-29T16:57:41.544Z,5.18
2023-01-29T17:02:45.352Z,5.72
2023-01-29T17:07:49.157Z,5.75
2023-01-29T17:12:57.905Z,5.20
2023-01-29T17:18:01.656Z,5.30
2023-01-29T17:23:05.304Z,5.20
2023-01-29T17:28:13.998Z,5.20
2023-01-29T17:33:21.853Z,5.93
2023-01-29T17:38:26.958Z,5.25
2023-01-29T17:43:31.990Z,5.38
2023-01-29T17:48:35.618Z,4.93
2023-01-29T17:53:47.453Z,5.35
2023-01-29T17:58:52.547Z,5.55
2023-01-29T18:03:56.263Z,5.15
2023-01-29T18:08:59.884Z,5.13
2023-01-29T18:14:13.572Z,5.20
2023-01-29T18:19:22.147Z,5.40
2023-01-29T18:24:26.678Z,5.38
2023-01-29T18:29:31.773Z,5.53
2023-01-29T18:34:35.399Z,5.38
2023-01-29T18:39:39.027Z,5.65
2023-01-29T18:44:44.089Z,5.57
2023-01-29T18:49:47.744Z,5.85
2023-01-29T18:54:51.606Z,5.63
2023-01-29T18:59:56.776Z,5.88
2023-01-29T19:05:00.570Z,5.55
2023-01-29T19:10:06.835Z,6.20
2023-01-29T19:15:12.693Z,6.68
2023-01-29T19:20:16.580Z,6.63
2023-01-29T19:25:20.608Z,7.22
2023-01-29T19:30:25.832Z,7.28
2023-01-29T19:35:29.402Z,7.50
2023-01-29T19:40:33.070Z,8.13
2023-01-29T19:45:50.434Z,9.02
2023-01-29T19:50:56.708Z,7.60
2023-01-29T19:56:01.836Z,7.72
2023-01-29T20:01:08.799Z,7.72
2023-01-29T20:06:12.425Z,7.82
2023-01-29T20:11:16.963Z,7.38
2023-01-29T20:16:23.458Z,7.20
2023-01-29T20:21:27.201Z,8.23
2023-01-29T20:26:30.927Z,8.63
2023-01-29T20:31:36.417Z,8.38
2023-01-29T20:36:40.183Z,7.65
2023-01-29T20:41:43.767Z,7.65
2023-01-29T20:46:48.680Z,8.23
2023-01-29T20:51:52.284Z,8.10
2023-01-29T20:56:55.877Z,8.57
2023-01-29T21:02:01.570Z,8.80
2023-01-29T21:07:05.619Z,8.30
2023-01-29T21:12:09.306Z,8.13
2023-01-29T21:17:14.290Z,9.00
2023-01-29T21:22:17.899Z,8.80
2023-01-29T21:27:22.313Z,7.88
2023-01-29T21:32:29.067Z,8.43
2023-01-29T21:37:36.814Z,8.38
2023-01-29T21:42:58.045Z,8.52
2023-01-29T21:48:02.905Z,9.13
2023-01-29T21:53:06.677Z,10.32
2023-01-29T21:58:10.223Z,8.88
2023-01-29T22:03:15.228Z,8.57
2023-01-29T22:08:20.471Z,8.82
2023-01-29T22:13:24.349Z,9.25
2023-01-29T22:18:29.226Z,8.80
2023-01-29T22:23:33.598Z,9.52
2023-01-29T22:28:39.862Z,8.73
2023-01-29T22:33:45.585Z,9.45
2023-01-29T22:38:49.173Z,8.98
2023-01-29T22:43:52.609Z,8.80
2023-01-29T22:48:57.611Z,9.18
2023-01-29T22:54:01.570Z,9.20
2023-01-29T23:04:57.904Z,9.05
2023-01-29T23:10:01.607Z,9.25
2023-01-29T23:15:05.793Z,8.55
2023-01-29T23:20:12.761Z,8.80
2023-01-29T23:25:16.772Z,9.88
2023-01-29T23:30:20.526Z,9.73
2023-01-29T23:35:25.907Z,8.80
2023-01-29T23:40:29.458Z,9.13
2023-01-29T23:45:33.049Z,9.32
2023-01-29T23:50:38.205Z,8.90
2023-01-29T23:55:43.564Z,8.20
